Time;durP1;ratioP1;P1;durP2;ratioP2;P2;SDS_P1;SDS_P2;PMS_P1;PMS_P2;Temp;Humidity;BMP_temperature;BMP_pressure;BME280_temperature;BME280_humidity;BME280_pressure;Samples;Min_cycle;Max_cycle;Signal;HPM_P1;HPM_P2
2022/07/18 00:00:46;;;;;;;6.32;3.13;;;25.30;90.30;;;;;;5094314;28;20020;-78
2022/07/18 00:03:12;;;;;;;4.45;3.45;;;25.30;90.40;;;;;;5097943;28;20082;-75
2022/07/18 00:05:38;;;;;;;8.52;3.85;;;25.20;90.60;;;;;;5095496;28;20065;-76
2022/07/18 00:08:04;;;;;;;5.20;3.67;;;25.20;90.60;;;;;;5099970;28;20020;-76
2022/07/18 00:10:30;;;;;;;8.48;3.70;;;25.20;90.80;;;;;;5096706;28;20093;-76
2022/07/18 00:12:56;;;;;;;4.63;3.30;;;25.10;90.90;;;;;;5100540;28;20396;-76
2022/07/18 00:15:22;;;;;;;6.55;3.67;;;25.10;90.70;;;;;;5100127;28;20047;-77
2022/07/18 00:17:48;;;;;;;4.60;3.20;;;25.00;91.00;;;;;;5085456;28;20020;-75
2022/07/18 00:20:14;;;;;;;5.30;3.30;;;24.90;91.20;;;;;;5097644;28;20047;-76
2022/07/18 00:22:40;;;;;;;6.50;3.50;;;24.90;91.20;;;;;;5099390;28;20024;-76
2022/07/18 00:25:07;;;;;;;4.82;2.97;;;24.90;91.00;;;;;;5085047;28;20036;-78
2022/07/18 00:27:33;;;;;;;7.30;3.40;;;24.90;91.20;;;;;;5089442;28;20024;-77
2022/07/18 00:29:59;;;;;;;11.27;3.83;;;24.80;91.30;;;;;;5088336;28;20041;-78
2022/07/18 00:32:25;;;;;;;8.05;3.75;;;24.80;91.40;;;;;;5084421;28;20624;-77
2022/07/18 00:34:51;;;;;;;5.18;3.72;;;24.70;91.40;;;;;;5088871;28;20012;-79
2022/07/18 00:37:17;;;;;;;8.00;3.28;;;24.70;91.40;;;;;;5088388;28;20012;-79
2022/07/18 00:39:42;;;;;;;6.18;4.22;;;24.60;91.70;;;;;;5090703;28;20085;-79
2022/07/18 00:42:08;;;;;;;5.95;3.35;;;24.60;92.00;;;;;;5094777;28;20072;-78
2022/07/18 00:44:34;;;;;;;5.10;3.58;;;24.50;92.00;;;;;;5098109;28;20020;-78
2022/07/18 00:47:01;;;;;;;5.30;3.72;;;24.40;92.20;;;;;;5095736;28;20498;-78
2022/07/18 00:49:28;;;;;;;5.45;4.13;;;24.40;92.30;;;;;;5096128;28;20028;-77
2022/07/18 00:51:55;;;;;;;6.22;3.92;;;24.30;92.50;;;;;;5097329;28;20028;-78
2022/07/18 00:54:21;;;;;;;5.00;3.25;;;24.30;92.80;;;;;;5095280;28;20020;-78
2022/07/18 00:56:49;;;;;;;5.97;3.95;;;24.10;93.30;;;;;;5079495;28;20028;-78
2022/07/18 00:59:15;;;;;;;5.20;4.03;;;24.10;93.00;;;;;;5082930;28;20062;-78
2022/07/18 01:01:46;;;;;;;7.03;4.05;;;24.10;93.00;;;;;;5082205;28;20028;-78
2022/07/18 01:04:23;;;;;;;5.38;3.75;;;24.00;93.10;;;;;;5085207;28;20071;-78
2022/07/18 01:06:51;;;;;;;5.47;3.70;;;24.00;93.10;;;;;;5083993;28;20028;-78
2022/07/18 01:09:18;;;;;;;7.38;3.85;;;23.90;93.40;;;;;;5089345;28;20028;-78
2022/07/18 01:11:45;;;;;;;9.73;4.05;;;23.90;93.50;;;;;;5086168;28;20025;-78
2022/07/18 01:14:12;;;;;;;7.75;3.53;;;23.80;93.70;;;;;;5093516;28;20396;-78
2022/07/18 01:16:38;;;;;;;4.93;3.75;;;23.70;93.80;;;;;;5090166;28;20074;-78
2022/07/18 01:19:04;;;;;;;4.00;3.40;;;23.60;94.30;;;;;;5098175;28;20024;-78
2022/07/18 01:21:30;;;;;;;5.57;3.53;;;23.50;94.60;;;;;;5093173;28;20090;-78
2022/07/18 01:23:56;;;;;;;10.48;4.40;;;23.40;95.00;;;;;;5098122;28;20019;-78
2022/07/18 01:26:22;;;;;;;6.00;3.60;;;23.30;95.30;;;;;;5097530;28;20103;-78
2022/07/18 01:28:48;;;;;;;5.47;3.97;;;23.20;95.70;;;;;;5078458;28;20033;-78
2022/07/18 01:31:14;;;;;;;6.13;4.00;;;23.10;96.20;;;;;;5080877;28;20504;-78
2022/07/18 01:33:41;;;;;;;6.35;4.07;;;23.00;96.40;;;;;;5081925;28;20021;-77
2022/07/18 01:36:07;;;;;;;7.00;3.95;;;22.90;96.80;;;;;;5081049;28;20043;-76
2022/07/18 01:38:34;;;;;;;6.93;4.00;;;22.80;97.20;;;;;;5085590;28;20024;-77
2022/07/18 01:41:00;;;;;;;8.05;4.15;;;22.80;97.50;;;;;;5093167;28;20028;-79
2022/07/18 01:43:27;;;;;;;8.10;4.57;;;22.70;97.80;;;;;;5089243;28;20082;-78
2022/07/18 01:45:54;;;;;;;9.70;4.22;;;22.60;98.00;;;;;;5093206;28;20020;-77
2022/07/18 01:48:22;;;;;;;4.90;4.40;;;22.60;98.30;;;;;;5098883;28;20028;-78
2022/07/18 01:50:48;;;;;;;7.45;4.20;;;22.50;98.50;;;;;;5089044;28;20100;-78
2022/07/18 01:53:14;;;;;;;7.93;4.35;;;22.50;98.60;;;;;;5094957;28;20580;-77
2022/07/18 01:55:40;;;;;;;6.15;3.85;;;22.50;99.00;;;;;;5093382;28;20055;-77
2022/07/18 01:58:06;;;;;;;5.65;4.80;;;22.40;99.20;;;;;;5096000;28;20028;-77
2022/07/18 02:00:32;;;;;;;7.40;4.88;;;22.30;99.30;;;;;;5095389;28;20028;-79
2022/07/18 02:02:58;;;;;;;9.23;4.57;;;22.30;99.30;;;;;;5090381;28;20040;-78
2022/07/18 02:05:23;;;;;;;8.90;4.35;;;22.30;99.40;;;;;;5111927;28;20481;-79
2022/07/18 02:07:49;;;;;;;6.43;4.63;;;22.30;99.50;;;;;;5080631;28;20043;-78
2022/07/18 02:10:20;;;;;;;6.15;4.07;;;22.30;99.30;;;;;;5082926;28;20477;-79
2022/07/18 02:12:47;;;;;;;8.02;4.18;;;22.30;99.30;;;;;;5081884;28;20443;-79
2022/07/18 02:15:14;;;;;;;5.38;4.18;;;22.20;99.20;;;;;;5085278;28;20058;-79
2022/07/18 02:17:40;;;;;;;7.45;3.90;;;22.20;99.00;;;;;;5092840;28;20021;-79
2022/07/18 02:20:09;;;;;;;7.35;4.28;;;22.30;99.00;;;;;;5094625;28;20023;-79
2022/07/18 02:22:35;;;;;;;5.38;3.92;;;22.20;99.20;;;;;;5096100;28;20070;-79
2022/07/18 02:25:01;;;;;;;9.00;4.18;;;22.20;99.10;;;;;;5094836;28;20020;-79
2022/07/18 02:27:27;;;;;;;5.88;4.30;;;22.20;99.10;;;;;;5088344;28;20104;-79
2022/07/18 02:29:53;;;;;;;5.88;4.03;;;22.10;99.00;;;;;;5080207;28;20025;-79
2022/07/18 02:32:19;;;;;;;7.80;4.00;;;22.10;99.20;;;;;;5079946;28;20013;-79
2022/07/18 02:34:45;;;;;;;7.85;4.05;;;22.10;99.40;;;;;;5082479;28;20054;-79
2022/07/18 02:37:11;;;;;;;7.43;4.65;;;22.10;99.20;;;;;;5080558;28;20016;-79
2022/07/18 02:39:37;;;;;;;7.80;4.10;;;22.10;99.10;;;;;;5085385;28;20032;-77
2022/07/18 02:42:06;;;;;;;9.20;4.07;;;22.10;99.40;;;;;;5085310;28;20101;-78
2022/07/18 02:44:32;;;;;;;5.88;4.53;;;22.20;99.20;;;;;;5087404;28;20024;-79
2022/07/18 02:46:58;;;;;;;8.48;4.00;;;22.30;99.00;;;;;;5088777;28;20027;-78
2022/07/18 02:49:27;;;;;;;7.88;4.85;;;22.30;99.00;;;;;;5088904;28;20028;-79
2022/07/18 02:52:01;;;;;;;9.90;4.72;;;22.40;99.20;;;;;;5090765;28;20419;-78
2022/07/18 02:54:30;;;;;;;5.88;4.30;;;22.40;99.30;;;;;;5092648;28;20069;-78
2022/07/18 02:56:55;;;;;;;5.45;4.35;;;22.40;99.30;;;;;;5095212;28;20024;-78
2022/07/18 02:59:21;;;;;;;4.97;3.80;;;22.50;99.40;;;;;;5094633;28;20043;-79
2022/07/18 03:01:48;;;;;;;7.05;4.45;;;22.60;99.10;;;;;;5084727;28;20031;-79
2022/07/18 03:04:15;;;;;;;8.50;4.32;;;22.60;99.20;;;;;;5079667;28;20043;-78
2022/07/18 03:06:41;;;;;;;6.72;4.60;;;22.60;99.20;;;;;;5077122;28;20023;-79
2022/07/18 03:09:08;;;;;;;6.10;4.68;;;22.50;99.30;;;;;;5081328;28;20099;-79
2022/07/18 03:11:34;;;;;;;6.65;4.20;;;22.50;99.50;;;;;;5096011;28;20034;-79
2022/07/18 03:13:59;;;;;;;6.10;3.90;;;22.50;99.70;;;;;;5092118;28;20544;-79
2022/07/18 03:16:25;;;;;;;7.30;4.47;;;22.40;99.90;;;;;;5086076;28;20028;-78
2022/07/18 03:18:51;;;;;;;5.05;4.30;;;22.30;99.90;;;;;;5093379;28;20024;-79
2022/07/18 03:21:17;;;;;;;5.75;4.30;;;22.30;99.90;;;;;;5078397;28;20025;-79
2022/07/18 03:23:43;;;;;;;4.35;3.95;;;22.20;99.90;;;;;;5084019;28;20032;-79
2022/07/18 03:26:09;;;;;;;7.32;4.80;;;22.20;99.90;;;;;;5089425;28;20012;-79
2022/07/18 03:28:34;;;;;;;10.93;5.00;;;22.10;99.90;;;;;;5089073;28;20108;-78
2022/07/18 03:31:00;;;;;;;6.65;4.78;;;22.10;99.90;;;;;;5084461;28;20067;-79
2022/07/18 03:33:26;;;;;;;5.97;4.60;;;22.00;99.90;;;;;;5088665;28;20028;-78
2022/07/18 03:35:52;;;;;;;6.30;4.53;;;21.90;99.90;;;;;;5087913;28;20931;-78
2022/07/18 03:38:18;;;;;;;8.20;5.15;;;21.90;99.90;;;;;;5091249;28;20088;-79
2022/07/18 03:40:44;;;;;;;7.82;4.35;;;21.80;99.90;;;;;;5090944;28;20047;-78
2022/07/18 03:43:10;;;;;;;8.60;5.53;;;21.80;99.90;;;;;;5095442;28;20055;-79
2022/07/18 03:45:36;;;;;;;5.25;4.65;;;21.80;99.90;;;;;;5096172;28;20492;-79
2022/07/18 03:48:01;;;;;;;5.13;4.30;;;21.80;99.90;;;;;;5090288;28;20021;-79
2022/07/18 03:50:27;;;;;;;6.47;4.75;;;21.70;99.90;;;;;;5077683;28;20031;-79
2022/07/18 03:52:53;;;;;;;10.35;5.07;;;21.70;99.90;;;;;;5080495;28;20049;-79
2022/07/18 03:55:19;;;;;;;8.90;5.18;;;21.70;99.90;;;;;;5079703;28;20032;-79
2022/07/18 03:57:46;;;;;;;6.63;4.88;;;21.60;99.90;;;;;;5084525;28;20037;-78
2022/07/18 04:00:12;;;;;;;7.35;5.05;;;21.60;99.90;;;;;;5080058;28;20032;-79
2022/07/18 04:02:40;;;;;;;6.38;4.65;;;21.60;99.90;;;;;;5087482;28;20031;-79
2022/07/18 04:05:06;;;;;;;7.13;5.00;;;21.60;99.90;;;;;;5081930;28;20021;-79
2022/07/18 04:07:32;;;;;;;8.57;5.60;;;21.50;99.90;;;;;;5088949;28;20051;-79
2022/07/18 04:09:58;;;;;;;6.00;4.93;;;21.50;99.90;;;;;;5087452;28;20013;-79
2022/07/18 04:12:24;;;;;;;6.85;4.90;;;21.50;99.90;;;;;;5090825;28;20488;-79
2022/07/18 04:14:50;;;;;;;7.60;5.13;;;21.50;99.90;;;;;;5094403;28;20417;-78
2022/07/18 04:17:16;;;;;;;9.00;6.00;;;21.50;99.90;;;;;;5098115;28;20061;-80
2022/07/18 04:19:41;;;;;;;8.77;4.90;;;21.50;99.90;;;;;;5096625;28;20519;-79
2022/07/18 04:22:07;;;;;;;8.07;5.05;;;21.50;99.90;;;;;;5079069;28;20114;-79
2022/07/18 04:24:33;;;;;;;8.88;5.43;;;21.50;99.90;;;;;;5078349;28;20025;-79
2022/07/18 04:26:59;;;;;;;10.52;5.72;;;21.50;99.90;;;;;;5082145;28;20546;-79
2022/07/18 04:29:25;;;;;;;10.02;5.53;;;21.50;99.90;;;;;;5080196;28;20016;-79
2022/07/18 04:31:51;;;;;;;7.88;5.88;;;21.50;99.90;;;;;;5084638;28;20063;-79
2022/07/18 04:34:17;;;;;;;11.48;5.88;;;21.50;99.90;;;;;;5082733;28;20051;-78
2022/07/18 04:36:43;;;;;;;8.38;5.70;;;21.50;99.90;;;;;;5086838;28;20031;-79
2022/07/18 04:39:09;;;;;;;10.73;6.53;;;21.50;99.90;;;;;;5084252;28;20016;-79
2022/07/18 04:41:35;;;;;;;8.07;5.78;;;21.50;99.90;;;;;;5090618;28;20115;-79
2022/07/18 04:44:00;;;;;;;16.48;6.43;;;21.50;99.90;;;;;;5091670;28;20104;-79
2022/07/18 04:46:26;;;;;;;10.35;6.93;;;21.50;99.90;;;;;;5094017;28;20032;-79
2022/07/18 04:48:52;;;;;;;10.13;6.05;;;21.50;99.90;;;;;;5096172;28;20052;-79
2022/07/18 04:51:18;;;;;;;11.73;6.40;;;21.50;99.90;;;;;;5097182;28;20384;-79
2022/07/18 04:53:44;;;;;;;9.73;6.65;;;21.60;99.90;;;;;;5097731;28;20047;-78
2022/07/18 04:56:09;;;;;;;12.90;7.25;;;21.60;99.90;;;;;;5094522;28;20029;-79
2022/07/18 04:58:35;;;;;;;10.45;6.45;;;21.70;99.90;;;;;;5081104;28;20036;-79
2022/07/18 05:01:01;;;;;;;8.15;6.47;;;21.80;99.90;;;;;;5082569;28;20021;-79
2022/07/18 05:03:27;;;;;;;13.57;5.90;;;21.80;99.90;;;;;;5084169;28;20038;-79
2022/07/18 05:05:53;;;;;;;9.07;6.13;;;21.90;99.90;;;;;;5087040;28;20024;-79
2022/07/18 05:08:18;;;;;;;10.05;6.45;;;22.00;99.90;;;;;;5084549;28;20039;-78
2022/07/18 05:10:44;;;;;;;9.15;5.82;;;22.10;99.90;;;;;;5090451;28;20012;-79
2022/07/18 05:13:11;;;;;;;9.50;6.07;;;22.30;99.90;;;;;;5085713;28;20047;-78
2022/07/18 05:15:36;;;;;;;10.18;6.03;;;22.40;99.90;;;;;;5093944;28;20020;-77
2022/07/18 05:18:02;;;;;;;13.95;5.80;;;22.50;99.90;;;;;;5095306;28;20077;-78
2022/07/18 05:20:28;;;;;;;12.85;5.55;;;22.60;99.90;;;;;;5093582;28;20021;-78
2022/07/18 05:22:54;;;;;;;8.88;5.85;;;22.70;99.90;;;;;;5080292;28;20036;-79
2022/07/18 05:25:24;;;;;;;9.98;5.88;;;22.80;99.90;;;;;;5082699;28;20021;-79
2022/07/18 05:27:52;;;;;;;9.18;6.43;;;22.80;99.90;;;;;;5080837;28;20345;-80
2022/07/18 05:30:18;;;;;;;9.27;6.15;;;23.00;99.90;;;;;;5084931;28;20028;-79
2022/07/18 05:32:47;;;;;;;10.98;5.93;;;23.00;99.90;;;;;;5082521;28;20035;-79
2022/07/18 05:35:13;;;;;;;9.02;5.90;;;23.10;99.90;;;;;;5089323;28;20059;-78
2022/07/18 05:37:40;;;;;;;8.60;5.68;;;23.20;99.90;;;;;;5098552;28;20052;-78
2022/07/18 05:40:08;;;;;;;12.43;6.47;;;23.20;99.90;;;;;;5097050;28;20067;-76
2022/07/18 05:42:34;;;;;;;8.95;6.20;;;23.30;99.90;;;;;;5094981;28;20051;-77
2022/07/18 05:45:00;;;;;;;9.20;5.72;;;23.40;99.90;;;;;;5098859;28;20020;-77
2022/07/18 05:47:26;;;;;;;13.02;6.03;;;23.50;99.90;;;;;;5096761;28;20037;-77
2022/07/18 05:49:52;;;;;;;23.92;6.35;;;23.60;99.90;;;;;;5090755;28;20020;-77
2022/07/18 05:52:18;;;;;;;14.23;5.88;;;23.70;99.90;;;;;;5086180;28;20040;-77
2022/07/18 05:54:44;;;;;;;14.82;6.25;;;23.80;99.90;;;;;;5093686;28;20039;-77
2022/07/18 05:57:10;;;;;;;11.05;5.38;;;23.90;99.90;;;;;;5090991;28;20024;-77
2022/07/18 05:59:35;;;;;;;11.73;5.68;;;24.00;99.90;;;;;;5080357;28;20056;-77
2022/07/18 06:02:01;;;;;;;12.32;5.70;;;24.20;99.90;;;;;;5079638;28;20025;-77
2022/07/18 06:04:27;;;;;;;10.57;5.20;;;24.20;99.90;;;;;;5079983;28;20028;-78
2022/07/18 06:06:53;;;;;;;11.70;5.07;;;24.40;99.90;;;;;;5078034;28;20481;-77
2022/07/18 06:09:19;;;;;;;9.23;5.10;;;24.50;99.90;;;;;;5078781;28;20066;-77
2022/07/18 06:11:45;;;;;;;6.05;4.88;;;24.60;99.90;;;;;;5079288;28;20091;-76
2022/07/18 06:14:11;;;;;;;11.63;5.38;;;24.70;99.90;;;;;;5095496;28;20035;-76
2022/07/18 06:16:36;;;;;;;6.85;4.82;;;24.90;99.90;;;;;;5095987;28;20020;-77
2022/07/18 06:19:03;;;;;;;5.70;4.30;;;25.00;99.90;;;;;;5097104;28;20048;-76
2022/07/18 06:21:29;;;;;;;13.13;3.78;;;25.20;99.90;;;;;;5088499;28;20044;-77
2022/07/18 06:23:54;;;;;;;5.70;4.25;;;25.30;99.90;;;;;;5093861;28;20466;-77
2022/07/18 06:26:20;;;;;;;5.22;4.18;;;25.50;99.90;;;;;;5089635;28;20028;-76
2022/07/18 06:28:47;;;;;;;8.27;3.63;;;25.60;99.90;;;;;;5095028;28;20099;-76
2022/07/18 06:31:15;;;;;;;6.80;3.70;;;25.70;99.90;;;;;;5096416;28;20020;-75
2022/07/18 06:33:42;;;;;;;6.65;3.80;;;25.90;99.90;;;;;;5092533;28;20032;-76
2022/07/18 06:36:08;;;;;;;5.32;4.05;;;26.00;99.90;;;;;;5090661;28;20013;-77
2022/07/18 06:38:34;;;;;;;4.75;3.63;;;26.20;99.90;;;;;;5087396;28;20095;-74
2022/07/18 06:41:00;;;;;;;4.40;3.25;;;26.30;99.60;;;;;;5079071;28;20535;-76
2022/07/18 06:43:26;;;;;;;8.07;3.45;;;26.50;99.00;;;;;;5078741;28;20021;-75
2022/07/18 06:45:52;;;;;;;5.07;3.42;;;26.60;98.20;;;;;;5088845;28;20023;-76
2022/07/18 06:48:18;;;;;;;7.70;3.15;;;26.70;97.50;;;;;;5096790;28;20027;-76
2022/07/18 06:50:44;;;;;;;7.00;3.63;;;26.90;97.50;;;;;;5096252;28;20036;-77
2022/07/18 06:53:10;;;;;;;5.70;3.30;;;27.10;96.50;;;;;;5095273;28;20404;-82
2022/07/18 06:55:36;;;;;;;9.52;2.92;;;27.20;96.10;;;;;;5087810;28;20021;-82
2022/07/18 06:58:02;;;;;;;8.40;3.65;;;27.40;96.30;;;;;;5089891;28;20089;-81
2022/07/18 07:00:28;;;;;;;3.72;3.10;;;27.50;95.40;;;;;;5093996;28;20016;-82
2022/07/18 07:02:54;;;;;;;5.47;3.28;;;27.60;95.50;;;;;;5096152;28;20078;-82
2022/07/18 07:05:21;;;;;;;5.45;3.60;;;27.80;94.80;;;;;;5095991;28;20020;-80
2022/07/18 07:07:47;;;;;;;7.70;3.08;;;27.90;95.00;;;;;;5095345;28;20276;-79
2022/07/18 07:10:14;;;;;;;7.65;3.40;;;28.00;93.80;;;;;;5092647;28;20020;-80
2022/07/18 07:12:48;;;;;;;6.07;3.45;;;28.20;93.40;;;;;;5079643;28;20033;-83
2022/07/18 07:15:15;;;;;;;6.88;3.33;;;28.30;92.50;;;;;;5094508;28;20072;-80
2022/07/18 07:17:41;;;;;;;6.57;3.20;;;28.40;91.90;;;;;;5097293;28;20048;-78
2022/07/18 07:20:08;;;;;;;6.70;2.65;;;28.50;92.00;;;;;;5095216;28;20557;-81
2022/07/18 07:22:54;;;;;;;8.02;2.95;;;28.60;91.10;;;;;;5086365;28;20029;-78
2022/07/18 07:25:21;;;;;;;8.38;3.30;;;28.70;90.40;;;;;;5079422;28;20023;-78
2022/07/18 07:27:47;;;;;;;5.88;3.03;;;28.70;90.10;;;;;;5078274;28;20024;-78
2022/07/18 07:30:14;;;;;;;6.57;3.20;;;28.90;89.00;;;;;;5083485;28;20026;-78
2022/07/18 07:32:42;;;;;;;10.85;2.72;;;29.00;87.60;;;;;;5079778;28;20028;-78
2022/07/18 07:35:13;;;;;;;7.32;2.90;;;29.00;87.80;;;;;;5095602;28;20017;-81
2022/07/18 07:37:40;;;;;;;10.27;3.03;;;29.20;88.30;;;;;;5085650;28;20024;-81
2022/07/18 07:40:07;;;;;;;5.15;2.80;;;29.40;87.40;;;;;;5089733;28;20775;-80
2022/07/18 07:42:33;;;;;;;9.10;3.08;;;29.50;87.00;;;;;;5073789;28;20031;-78
2022/07/18 07:44:58;;;;;;;6.57;3.38;;;29.50;85.00;;;;;;5086158;28;20064;-81
2022/07/18 07:47:24;;;;;;;6.80;2.80;;;29.60;85.30;;;;;;5088738;28;20484;-81
2022/07/18 07:49:51;;;;;;;8.68;3.13;;;29.60;84.40;;;;;;5090630;28;20028;-79
2022/07/18 07:52:17;;;;;;;4.63;2.58;;;29.70;84.60;;;;;;5089473;28;20052;-80
2022/07/18 07:54:47;;;;;;;6.40;2.70;;;29.80;84.00;;;;;;5094268;28;20396;-79
2022/07/18 07:57:13;;;;;;;9.25;3.25;;;29.80;84.50;;;;;;5091698;28;20039;-78
2022/07/18 07:59:39;;;;;;;6.65;2.80;;;29.90;83.00;;;;;;5094993;28;20059;-83
2022/07/18 08:02:05;;;;;;;5.90;3.42;;;30.00;82.10;;;;;;5081589;28;20412;-81
2022/07/18 08:04:31;;;;;;;8.35;2.80;;;30.10;83.10;;;;;;5077633;28;20400;-83
2022/07/18 08:06:57;;;;;;;5.88;2.83;;;30.20;82.70;;;;;;5079452;28;20024;-80
2022/07/18 08:09:23;;;;;;;4.30;2.40;;;30.40;81.30;;;;;;5092177;28;20028;-79
2022/07/18 08:11:49;;;;;;;7.05;2.60;;;30.40;78.90;;;;;;5082961;28;20092;-81
2022/07/18 08:14:15;;;;;;;8.13;2.90;;;30.50;81.50;;;;;;5089392;28;20032;-78
2022/07/18 08:16:41;;;;;;;7.80;3.08;;;30.70;79.90;;;;;;5089871;28;20017;-82
2022/07/18 08:19:07;;;;;;;4.32;2.50;;;30.70;79.10;;;;;;5096995;28;20522;-83
2022/07/18 08:21:33;;;;;;;4.32;2.83;;;30.80;77.90;;;;;;5095168;28;20062;-83
2022/07/18 08:23:58;;;;;;;4.70;2.60;;;30.90;78.80;;;;;;5097640;28;20050;-78
2022/07/18 08:26:25;;;;;;;8.57;3.58;;;31.00;76.50;;;;;;5099243;28;20028;-81
2022/07/18 08:28:50;;;;;;;6.00;2.90;;;31.10;75.80;;;;;;5092817;28;20021;-82
2022/07/18 08:31:18;;;;;;;11.90;2.70;;;31.20;74.60;;;;;;5093526;28;20388;-81
2022/07/18 08:33:44;;;;;;;8.80;2.72;;;31.30;72.20;;;;;;5086599;28;20016;-78
2022/07/18 08:36:10;;;;;;;6.03;2.63;;;31.40;73.40;;;;;;5099791;28;20016;-77
2022/07/18 08:38:36;;;;;;;7.85;2.45;;;31.40;73.00;;;;;;5099938;28;20027;-77
2022/07/18 08:41:03;;;;;;;15.00;2.83;;;31.50;72.70;;;;;;5091761;28;20024;-77
2022/07/18 08:43:29;;;;;;;6.70;3.03;;;31.50;71.20;;;;;;5089761;28;20032;-77
2022/07/18 08:46:00;;;;;;;8.63;2.72;;;31.60;71.30;;;;;;5086563;28;20094;-78
2022/07/18 08:48:26;;;;;;;5.55;2.60;;;31.60;72.00;;;;;;5092486;28;20483;-78
2022/07/18 08:50:52;;;;;;;8.38;2.45;;;31.60;71.10;;;;;;5090351;28;20040;-79
2022/07/18 08:53:19;;;;;;;9.05;2.50;;;31.60;70.10;;;;;;5085079;28;20074;-79
2022/07/18 08:55:46;;;;;;;6.78;2.47;;;31.70;70.10;;;;;;5095038;28;20020;-79
2022/07/18 08:58:14;;;;;;;5.15;2.38;;;31.80;70.40;;;;;;5096126;28;20028;-78
2022/07/18 09:00:41;;;;;;;8.82;2.72;;;31.80;67.50;;;;;;5084072;28;20506;-80
2022/07/18 09:03:06;;;;;;;13.00;2.63;;;31.90;68.60;;;;;;5097133;28;20128;-79
2022/07/18 09:05:33;;;;;;;3.65;2.40;;;32.00;69.40;;;;;;5095849;28;20028;-80
2022/07/18 09:08:08;;;;;;;6.68;2.95;;;32.10;66.90;;;;;;5097295;28;20503;-80
2022/07/18 09:10:47;;;;;;;8.30;2.67;;;32.00;66.20;;;;;;5098708;28;20039;-78
2022/07/18 09:13:12;;;;;;;8.00;2.60;;;32.00;67.50;;;;;;5091683;28;20040;-80
2022/07/18 09:16:16;;;;;;;10.05;2.40;;;31.90;66.30;;;;;;5082740;28;20484;-79
2022/07/18 09:18:47;;;;;;;7.20;2.70;;;32.00;66.70;;;;;;5083869;28;20032;-79
2022/07/18 09:21:21;;;;;;;9.48;2.38;;;32.30;66.20;;;;;;5082572;28;20023;-80
2022/07/18 09:23:52;;;;;;;8.30;2.20;;;32.40;65.40;;;;;;5088509;28;20050;-80
2022/07/18 09:26:42;;;;;;;11.00;2.38;;;32.50;64.50;;;;;;5083590;28;20085;-77
2022/07/18 09:29:10;;;;;;;4.73;2.00;;;32.60;63.40;;;;;;5088248;28;20029;-77
2022/07/18 09:31:36;;;;;;;6.20;2.22;;;32.60;63.70;;;;;;5092763;28;20024;-76
2022/07/18 09:34:04;;;;;;;7.13;2.08;;;32.60;63.10;;;;;;5099853;28;20079;-76
2022/07/18 09:36:33;;;;;;;10.38;2.38;;;32.60;63.00;;;;;;5097898;28;20032;-78
2022/07/18 09:39:00;;;;;;;9.15;2.30;;;32.60;63.30;;;;;;5094442;28;20107;-81
2022/07/18 09:41:29;;;;;;;8.18;2.25;;;32.70;63.10;;;;;;5093184;28;20069;-80
2022/07/18 09:43:56;;;;;;;4.05;2.25;;;32.70;61.60;;;;;;5093692;28;20457;-79
2022/07/18 09:46:22;;;;;;;8.55;2.55;;;32.80;62.00;;;;;;5082380;28;20024;-81
2022/07/18 09:48:48;;;;;;;14.77;2.83;;;32.60;61.30;;;;;;5088568;28;20098;-77
2022/07/18 09:51:14;;;;;;;7.05;2.72;;;32.50;60.80;;;;;;5097965;28;20031;-78
2022/07/18 09:53:44;;;;;;;16.05;2.50;;;32.40;61.50;;;;;;5083252;28;20077;-79
2022/07/18 09:56:12;;;;;;;6.55;2.30;;;32.50;60.90;;;;;;5083468;28;20036;-80
2022/07/18 09:58:40;;;;;;;4.20;2.17;;;32.60;60.30;;;;;;5090164;28;20044;-80
2022/07/18 10:01:08;;;;;;;3.78;2.20;;;32.90;61.10;;;;;;5087777;28;20016;-78
2022/07/18 10:03:35;;;;;;;3.92;2.05;;;33.00;60.00;;;;;;5092258;28;20032;-77
2022/07/18 10:06:02;;;;;;;3.40;2.15;;;33.00;60.10;;;;;;5079385;28;20016;-79
2022/07/18 10:08:31;;;;;;;6.55;2.63;;;33.10;59.80;;;;;;5080891;28;20378;-78
2022/07/18 10:11:00;;;;;;;7.40;2.20;;;33.20;60.10;;;;;;5085492;28;20052;-79
2022/07/18 10:13:28;;;;;;;4.70;2.40;;;33.20;59.90;;;;;;5088845;28;20406;-78
2022/07/18 10:15:54;;;;;;;6.03;2.20;;;33.20;59.70;;;;;;5085071;28;20503;-79
2022/07/18 10:18:23;;;;;;;6.78;2.15;;;33.20;59.70;;;;;;5084183;28;20024;-78
2022/07/18 10:20:54;;;;;;;4.55;1.95;;;33.30;59.70;;;;;;5088585;28;20472;-79
2022/07/18 10:23:37;;;;;;;3.28;2.20;;;33.20;59.70;;;;;;5086875;28;20024;-77
2022/07/18 10:26:16;;;;;;;5.38;2.65;;;33.30;60.90;;;;;;5089782;28;20023;-77
2022/07/18 10:28:57;;;;;;;6.05;1.95;;;33.40;60.30;;;;;;5088503;28;20032;-77
2022/07/18 10:31:30;;;;;;;8.57;2.67;;;33.40;60.40;;;;;;5092256;28;20024;-79
2022/07/18 10:34:08;;;;;;;9.00;2.42;;;33.50;59.50;;;;;;5097160;28;20028;-78
2022/07/18 10:36:38;;;;;;;6.40;2.35;;;33.60;59.80;;;;;;5093465;28;20104;-78
2022/07/18 10:39:07;;;;;;;4.00;2.78;;;33.50;59.50;;;;;;5097528;28;20016;-78
2022/07/18 10:41:39;;;;;;;6.05;2.63;;;33.60;59.80;;;;;;5092810;28;20047;-78
2022/07/18 10:44:27;;;;;;;9.52;3.03;;;33.50;59.60;;;;;;5088456;28;20024;-78
2022/07/18 10:47:20;;;;;;;7.28;2.72;;;33.70;59.60;;;;;;5090748;28;20070;-79
2022/07/18 10:49:52;;;;;;;6.88;2.50;;;33.70;60.10;;;;;;5081556;28;20032;-80
2022/07/18 10:52:29;;;;;;;3.88;2.40;;;33.80;59.50;;;;;;5084424;28;20048;-80
2022/07/18 10:55:07;;;;;;;5.00;3.28;;;33.90;59.10;;;;;;5095787;28;20025;-81
2022/07/18 10:57:40;;;;;;;5.35;2.47;;;34.00;60.50;;;;;;5089769;28;20027;-79
2022/07/18 11:00:14;;;;;;;14.07;2.97;;;34.10;58.60;;;;;;5090845;28;20020;-80
2022/07/18 11:02:46;;;;;;;8.65;3.17;;;34.10;59.00;;;;;;5092631;28;20054;-80
2022/07/18 11:05:27;;;;;;;5.47;2.67;;;34.00;58.40;;;;;;5092911;28;20043;-80
2022/07/18 11:08:01;;;;;;;14.35;2.83;;;34.00;58.90;;;;;;5096395;28;20103;-79
2022/07/18 11:10:57;;;;;;;3.13;2.00;;;34.00;58.20;;;;;;5094939;28;20403;-79
2022/07/18 11:13:30;;;;;;;6.75;2.80;;;34.10;58.60;;;;;;5085353;28;20043;-80
2022/07/18 11:16:06;;;;;;;3.97;2.30;;;34.20;56.90;;;;;;5084699;28;20030;-80
2022/07/18 11:18:52;;;;;;;5.72;2.42;;;34.10;57.30;;;;;;5090060;28;20019;-79
2022/07/18 11:21:36;;;;;;;4.13;2.33;;;34.20;57.60;;;;;;5090957;28;20023;-80
2022/07/18 11:24:03;;;;;;;10.70;3.28;;;34.30;56.90;;;;;;5092624;28;20024;-80
2022/07/18 11:26:30;;;;;;;6.43;2.63;;;34.40;56.90;;;;;;5092807;28;20119;-81
2022/07/18 11:29:11;;;;;;;10.40;2.58;;;34.40;57.40;;;;;;5084722;28;20484;-78
2022/07/18 11:31:48;;;;;;;6.00;2.60;;;34.50;56.70;;;;;;5094506;28;20024;-80
2022/07/18 11:34:15;;;;;;;6.60;2.50;;;34.50;56.70;;;;;;5090387;28;20028;-80
2022/07/18 11:36:46;;;;;;;6.07;2.58;;;34.60;56.60;;;;;;5095953;28;20035;-80
2022/07/18 11:39:13;;;;;;;7.07;2.08;;;34.60;56.50;;;;;;5095188;28;20020;-81
2022/07/18 11:41:40;;;;;;;7.97;2.42;;;34.60;56.10;;;;;;5090377;28;20032;-80
2022/07/18 11:44:17;;;;;;;4.43;2.47;;;34.70;55.90;;;;;;5095657;28;20470;-81
2022/07/18 11:46:44;;;;;;;4.97;2.30;;;34.80;56.10;;;;;;5096552;28;20024;-80
2022/07/18 11:49:10;;;;;;;5.35;2.72;;;34.90;54.10;;;;;;5083476;28;20016;-80
2022/07/18 11:51:38;;;;;;;8.95;2.40;;;35.00;54.20;;;;;;5090966;28;20107;-79
2022/07/18 11:54:05;;;;;;;3.40;1.95;;;35.00;55.10;;;;;;5089014;28;20044;-80
2022/07/18 11:56:31;;;;;;;5.85;2.25;;;35.20;54.60;;;;;;5093482;28;20028;-80
2022/07/18 11:58:57;;;;;;;6.95;2.30;;;35.20;55.40;;;;;;5095907;28;20100;-79
2022/07/18 12:01:33;;;;;;;5.13;2.38;;;35.20;53.30;;;;;;5102558;28;20016;-79
2022/07/18 12:04:02;;;;;;;9.43;3.17;;;35.30;53.60;;;;;;5102504;28;20020;-79
2022/07/18 12:06:28;;;;;;;11.25;2.40;;;35.20;53.50;;;;;;5085617;28;20102;-80
2022/07/18 12:09:03;;;;;;;5.93;2.67;;;35.30;54.00;;;;;;5096827;28;20028;-80
2022/07/18 12:11:38;;;;;;;4.60;2.42;;;35.40;54.30;;;;;;5100341;28;20071;-79
2022/07/18 12:14:15;;;;;;;5.50;2.80;;;35.40;54.30;;;;;;5080766;28;20025;-81
2022/07/18 12:16:47;;;;;;;7.57;2.95;;;35.50;55.20;;;;;;5094814;28;20119;-78
2022/07/18 12:19:26;;;;;;;5.43;2.42;;;35.40;55.00;;;;;;5084281;28;20549;-80
2022/07/18 12:21:55;;;;;;;9.43;2.33;;;35.60;55.10;;;;;;5087078;28;20103;-78
2022/07/18 12:24:39;;;;;;;9.18;2.45;;;35.70;53.80;;;;;;5086044;28;20020;-81
2022/07/18 12:27:14;;;;;;;4.38;2.78;;;35.80;53.30;;;;;;5091704;28;20028;-77
2022/07/18 12:29:58;;;;;;;8.55;2.55;;;35.90;52.90;;;;;;5088040;28;20036;-78
2022/07/18 12:32:25;;;;;;;8.38;2.72;;;35.90;52.20;;;;;;5097820;28;20052;-80
2022/07/18 12:35:01;;;;;;;6.63;2.67;;;36.00;51.90;;;;;;5096262;28;20073;-79
2022/07/18 12:37:32;;;;;;;10.65;2.72;;;35.90;51.50;;;;;;5085430;28;20028;-81
2022/07/18 12:40:11;;;;;;;3.65;2.38;;;35.80;51.90;;;;;;5091049;28;20142;-78
2022/07/18 12:42:41;;;;;;;9.70;2.47;;;35.90;51.60;;;;;;5086645;28;20500;-79
2022/07/18 12:45:09;;;;;;;8.23;2.45;;;36.00;51.80;;;;;;5080456;28;20021;-79
2022/07/18 12:47:35;;;;;;;6.35;2.42;;;36.00;51.70;;;;;;5084120;28;20020;-78
2022/07/18 12:50:02;;;;;;;5.65;2.88;;;36.10;52.70;;;;;;5093108;28;20024;-80